createdAt,value
2023-01-12T00:01:33.352Z,1.90
2023-01-12T00:04:00.335Z,1.90
2023-01-12T00:06:27.246Z,2.10
2023-01-12T00:08:54.185Z,2.00
2023-01-12T00:11:21.415Z,2.00
2023-01-12T00:13:48.308Z,2.00
2023-01-12T00:16:34.883Z,2.00
2023-01-12T00:19:02.108Z,2.00
2023-01-12T00:21:28.939Z,1.90
2023-01-12T00:23:55.739Z,2.00
2023-01-12T00:26:22.561Z,1.90
2023-01-12T00:28:49.359Z,1.90
2023-01-12T00:31:18.284Z,1.90
2023-01-12T00:33:45.056Z,1.90
2023-01-12T00:36:14.007Z,1.90
2023-01-12T00:38:40.858Z,1.90
2023-01-12T00:41:09.054Z,1.90
2023-01-12T00:43:54.512Z,1.90
2023-01-12T00:46:31.039Z,1.90
2023-01-12T00:48:57.837Z,1.90
2023-01-12T00:51:24.736Z,1.90
2023-01-12T00:53:51.495Z,1.90
2023-01-12T00:56:18.291Z,1.90
2023-01-12T00:58:45.149Z,1.90
2023-01-12T01:01:12.007Z,1.90
2023-01-12T01:03:38.839Z,1.90
2023-01-12T01:06:06.658Z,1.90
2023-01-12T01:08:35.869Z,1.90
2023-01-12T01:11:06.595Z,1.90
2023-01-12T01:13:33.518Z,2.00
2023-01-12T01:16:01.185Z,1.90
2023-01-12T01:18:28.293Z,1.90
2023-01-12T01:20:55.549Z,1.90
2023-01-12T01:23:23.852Z,1.90
2023-01-12T01:25:50.981Z,1.90
2023-01-12T01:28:18.050Z,1.90
2023-01-12T01:30:46.173Z,1.90
2023-01-12T01:33:13.513Z,1.90
2023-01-12T01:35:40.626Z,2.00
2023-01-12T01:38:07.421Z,1.90
2023-01-12T01:40:34.335Z,2.00
2023-01-12T01:43:01.148Z,2.00
2023-01-12T01:45:27.944Z,2.00
2023-01-12T01:48:00.058Z,2.00
2023-01-12T01:50:38.121Z,2.10
2023-01-12T01:53:06.978Z,2.10
2023-01-12T01:55:36.868Z,2.10
2023-01-12T01:58:15.145Z,2.10
2023-01-12T02:00:42.529Z,2.10
2023-01-12T02:03:11.273Z,2.10
2023-01-12T02:05:39.244Z,2.10
2023-01-12T02:08:16.732Z,2.10
2023-01-12T02:10:43.755Z,2.10
2023-01-12T02:13:28.996Z,2.10
2023-01-12T02:16:18.726Z,2.20
2023-01-12T02:18:49.771Z,2.20
2023-01-12T02:21:35.087Z,2.20
2023-01-12T02:24:10.867Z,2.20
2023-01-12T02:26:57.568Z,2.20
2023-01-12T02:29:27.419Z,2.20
2023-01-12T02:32:12.973Z,2.20
2023-01-12T02:34:48.234Z,2.20
2023-01-12T02:37:20.948Z,2.20
2023-01-12T02:39:52.472Z,2.20
2023-01-12T02:42:44.090Z,2.30
2023-01-12T02:45:23.090Z,2.30
2023-01-12T02:47:55.847Z,2.20
2023-01-12T02:50:33.532Z,2.30
2023-01-12T02:53:02.919Z,2.20
2023-01-12T02:55:30.304Z,2.20
2023-01-12T02:57:57.627Z,2.30
2023-01-12T03:00:24.510Z,2.20
2023-01-12T03:02:51.595Z,2.20
2023-01-12T03:05:18.384Z,2.20
2023-01-12T03:07:45.419Z,2.20
2023-01-12T03:10:35.275Z,2.20
2023-01-12T03:13:06.441Z,2.20
2023-01-12T03:15:34.967Z,2.20
2023-01-12T03:18:06.272Z,2.20
2023-01-12T03:20:34.294Z,2.20
2023-01-12T03:23:03.254Z,2.10
2023-01-12T03:25:31.591Z,2.10
2023-01-12T03:27:59.744Z,2.10
2023-01-12T03:30:31.228Z,2.10
2023-01-12T03:32:57.988Z,2.00
2023-01-12T03:35:26.309Z,2.00
2023-01-12T03:37:55.963Z,2.00
2023-01-12T03:40:23.816Z,2.00
2023-01-12T03:42:50.545Z,2.00
2023-01-12T03:45:26.952Z,2.00
2023-01-12T03:48:01.903Z,2.00
2023-01-12T03:50:36.376Z,2.00
2023-01-12T03:53:05.348Z,2.00
2023-01-12T03:55:32.919Z,2.00
2023-01-12T03:57:59.914Z,2.00
2023-01-12T04:00:27.778Z,2.00
2023-01-12T04:03:16.323Z,2.00
2023-01-12T04:05:43.772Z,1.90
2023-01-12T04:08:11.928Z,1.90
2023-01-12T04:10:38.727Z,1.90
2023-01-12T04:13:05.496Z,1.90
2023-01-12T04:15:32.321Z,1.90
2023-01-12T04:17:59.292Z,1.90
2023-01-12T04:20:26.065Z,1.90
2023-01-12T04:22:52.846Z,1.90
2023-01-12T04:25:21.233Z,1.90
2023-01-12T04:27:49.311Z,1.90
2023-01-12T04:30:17.122Z,1.90
2023-01-12T04:32:44.480Z,1.90
2023-01-12T04:35:14.637Z,1.90
2023-01-12T04:37:41.377Z,1.80
2023-01-12T04:40:08.567Z,1.80
2023-01-12T04:42:54.042Z,1.90
2023-01-12T04:45:20.874Z,1.80
2023-01-12T04:47:47.655Z,1.90
2023-01-12T04:50:14.827Z,1.90
2023-01-12T04:52:41.615Z,1.90
2023-01-12T04:55:08.591Z,1.90
2023-01-12T04:57:35.403Z,1.90
2023-01-12T05:00:02.218Z,1.90
2023-01-12T05:02:29.065Z,1.90
2023-01-12T05:04:55.854Z,1.90
2023-01-12T05:07:22.743Z,1.90
2023-01-12T05:10:08.225Z,1.90
2023-01-12T05:12:35.083Z,1.90
2023-01-12T05:15:03.675Z,1.90
2023-01-12T05:17:31.244Z,1.90
2023-01-12T05:20:00.665Z,2.00
2023-01-12T05:22:27.747Z,2.00
2023-01-12T05:24:54.615Z,2.00
2023-01-12T05:27:21.500Z,2.00
2023-01-12T05:29:49.539Z,2.00
2023-01-12T05:32:16.388Z,2.00
2023-01-12T05:34:43.140Z,2.00
2023-01-12T05:37:09.949Z,2.10
2023-01-12T05:39:36.750Z,2.00
2023-01-12T05:42:22.025Z,2.10
2023-01-12T05:44:48.799Z,2.10
2023-01-12T05:47:15.681Z,2.00
2023-01-12T05:49:42.522Z,2.00
2023-01-12T05:52:09.339Z,2.00
2023-01-12T05:54:36.195Z,2.00
2023-01-12T05:57:03.027Z,2.00
2023-01-12T05:59:29.832Z,2.10
2023-01-12T06:01:56.659Z,2.10
2023-01-12T06:04:23.636Z,2.10
2023-01-12T06:06:50.531Z,2.20
2023-01-12T06:09:17.514Z,2.10
2023-01-12T06:12:19.460Z,2.10
2023-01-12T06:14:46.239Z,2.20
2023-01-12T06:17:13.021Z,2.20
2023-01-12T06:19:40.282Z,2.20
2023-01-12T06:22:07.550Z,2.20
2023-01-12T06:24:34.375Z,2.30
2023-01-12T06:27:01.230Z,2.40
2023-01-12T06:29:28.001Z,2.40
2023-01-12T06:31:54.765Z,2.40
2023-01-12T06:34:21.635Z,2.40
2023-01-12T06:36:49.482Z,2.40
2023-01-12T06:39:16.411Z,2.50
2023-01-12T06:42:01.894Z,2.50
2023-01-12T06:44:28.712Z,2.50
2023-01-12T06:46:55.515Z,2.50
2023-01-12T06:49:22.525Z,2.50
2023-01-12T06:51:51.515Z,2.60
2023-01-12T06:54:18.795Z,2.60
2023-01-12T06:56:45.897Z,2.60
2023-01-12T06:59:12.963Z,2.60
2023-01-12T07:01:40.302Z,2.60
2023-01-12T07:04:07.415Z,2.70
2023-01-12T07:06:34.687Z,2.70
2023-01-12T07:09:01.547Z,2.70
2023-01-12T07:11:28.288Z,2.70
2023-01-12T07:13:55.531Z,2.70
2023-01-12T07:16:22.604Z,2.70
2023-01-12T07:18:49.772Z,2.70
2023-01-12T07:21:19.976Z,2.70
2023-01-12T07:23:46.768Z,2.70
2023-01-12T07:26:13.592Z,2.80
2023-01-12T07:28:40.435Z,2.80
2023-01-12T07:31:07.831Z,2.80
2023-01-12T07:33:36.800Z,2.80
2023-01-12T07:36:03.687Z,2.80
2023-01-12T07:38:30.946Z,2.80
2023-01-12T07:41:01.473Z,2.90
2023-01-12T07:43:28.525Z,2.90
2023-01-12T07:45:56.149Z,2.90
2023-01-12T07:48:23.473Z,2.90
2023-01-12T07:50:50.351Z,2.90
2023-01-12T07:53:17.122Z,2.90
2023-01-12T07:55:43.976Z,2.90
2023-01-12T07:58:10.899Z,2.90
2023-01-12T08:00:37.853Z,2.90
2023-01-12T08:03:16.722Z,2.90
2023-01-12T08:05:43.516Z,2.90
2023-01-12T08:08:10.316Z,3.00
2023-01-12T08:10:37.165Z,2.90
2023-01-12T08:13:05.321Z,3.00
2023-01-12T08:15:33.819Z,3.00
2023-01-12T08:18:05.800Z,3.00
2023-01-12T08:20:34.982Z,3.00
2023-01-12T08:23:04.733Z,3.00
2023-01-12T08:25:34.367Z,3.10
2023-01-12T08:28:03.952Z,3.10
2023-01-12T08:30:31.071Z,3.10
2023-01-12T08:32:58.748Z,3.20
2023-01-12T08:35:26.529Z,3.10
2023-01-12T08:37:54.500Z,3.20
2023-01-12T08:40:21.361Z,3.20
2023-01-12T08:42:50.063Z,3.20
2023-01-12T08:45:16.862Z,3.30
2023-01-12T08:47:45.320Z,3.20
2023-01-12T08:50:12.226Z,3.30
2023-01-12T08:52:39.021Z,3.30
2023-01-12T08:55:06.141Z,3.30
2023-01-12T08:57:33.605Z,3.30
2023-01-12T09:00:00.452Z,3.40
2023-01-12T09:02:27.560Z,3.30
2023-01-12T09:04:54.376Z,3.30
2023-01-12T09:07:21.221Z,3.30
2023-01-12T09:09:47.996Z,3.40
2023-01-12T09:12:14.877Z,3.40
2023-01-12T09:14:41.693Z,3.50
2023-01-12T09:17:08.496Z,3.50
2023-01-12T09:19:35.279Z,3.40
2023-01-12T09:22:02.121Z,3.50
2023-01-12T09:24:28.903Z,3.50
2023-01-12T09:26:55.762Z,3.50
2023-01-12T09:29:22.518Z,3.50
2023-01-12T09:31:49.473Z,3.60
2023-01-12T09:34:16.274Z,3.60
2023-01-12T09:36:43.171Z,3.60
2023-01-12T09:39:18.618Z,3.70
2023-01-12T09:42:12.404Z,3.80
2023-01-12T09:45:01.397Z,3.70
2023-01-12T09:47:36.386Z,3.80
2023-01-12T09:50:10.617Z,3.80
2023-01-12T09:52:41.580Z,3.80
2023-01-12T09:55:19.190Z,3.80
2023-01-12T09:57:45.987Z,3.80
2023-01-12T10:00:14.155Z,3.80
2023-01-12T10:02:45.116Z,3.90
2023-01-12T10:05:31.488Z,3.80
2023-01-12T10:08:05.609Z,3.80
2023-01-12T10:10:32.471Z,4.00
2023-01-12T10:13:04.668Z,3.90
2023-01-12T10:15:37.539Z,3.90
2023-01-12T10:18:09.299Z,3.90
2023-01-12T10:20:40.662Z,3.90
2023-01-12T10:23:07.468Z,4.00
2023-01-12T10:25:45.902Z,4.00
2023-01-12T10:28:15.667Z,4.00
2023-01-12T10:30:42.635Z,3.90
2023-01-12T10:33:10.848Z,4.00
2023-01-12T10:35:47.826Z,4.00
2023-01-12T10:38:20.430Z,4.00
2023-01-12T10:41:01.738Z,4.00
2023-01-12T10:43:34.065Z,4.00
2023-01-12T10:46:14.461Z,4.00
2023-01-12T10:48:45.607Z,4.00
2023-01-12T10:51:24.392Z,4.00
2023-01-12T10:53:54.016Z,4.10
2023-01-12T10:56:23.698Z,4.10
2023-01-12T10:58:52.075Z,4.10
2023-01-12T11:01:18.914Z,4.10
2023-01-12T11:03:45.719Z,4.10
2023-01-12T11:06:16.577Z,4.20
2023-01-12T11:08:43.692Z,4.20
2023-01-12T11:11:22.846Z,4.10
2023-01-12T11:13:52.485Z,4.20
2023-01-12T11:16:24.379Z,4.20
2023-01-12T11:19:09.911Z,4.10
2023-01-12T11:21:38.345Z,4.20
2023-01-12T11:24:10.028Z,4.20
2023-01-12T11:26:39.474Z,4.20
2023-01-12T11:29:26.192Z,4.20
2023-01-12T11:31:56.990Z,4.20
2023-01-12T11:34:25.419Z,4.20
2023-01-12T11:36:53.939Z,4.20
2023-01-12T11:39:22.808Z,4.30
2023-01-12T11:42:09.415Z,4.30
2023-01-12T11:44:50.651Z,4.30
2023-01-12T11:47:32.078Z,4.30
2023-01-12T11:49:59.017Z,4.30
2023-01-12T11:52:27.158Z,4.30
2023-01-12T11:54:54.020Z,4.30
2023-01-12T11:57:26.635Z,4.30
2023-01-12T11:59:53.370Z,4.30
2023-01-12T12:02:20.220Z,4.30
2023-01-12T12:05:06.317Z,4.30
2023-01-12T12:07:33.119Z,4.30
2023-01-12T12:10:19.029Z,4.30
2023-01-12T12:13:07.618Z,4.40
2023-01-12T12:15:46.733Z,4.30
2023-01-12T12:18:13.577Z,4.40
2023-01-12T12:20:43.199Z,4.30
2023-01-12T12:23:28.904Z,4.40
2023-01-12T12:26:01.638Z,4.40
2023-01-12T12:28:52.037Z,4.40
2023-01-12T12:31:24.930Z,4.40
2023-01-12T12:34:10.321Z,4.40
2023-01-12T12:36:55.689Z,4.40
2023-01-12T12:39:22.496Z,4.50
2023-01-12T12:42:14.147Z,4.50
2023-01-12T12:44:59.420Z,4.50
2023-01-12T12:47:28.917Z,4.60
2023-01-12T12:49:56.448Z,4.70
2023-01-12T12:52:24.787Z,4.60
2023-01-12T12:54:53.463Z,4.70
2023-01-12T12:57:20.240Z,4.60
2023-01-12T12:59:52.177Z,4.60
2023-01-12T13:02:51.750Z,4.60
2023-01-12T13:05:37.311Z,4.50
2023-01-12T13:08:04.136Z,4.50
2023-01-12T13:10:33.669Z,4.50
2023-01-12T13:13:04.419Z,4.40
2023-01-12T13:15:36.785Z,4.40
2023-01-12T13:18:04.739Z,4.40
2023-01-12T13:20:36.649Z,4.30
2023-01-12T13:23:04.796Z,4.30
2023-01-12T13:25:31.531Z,4.30
2023-01-12T13:28:01.192Z,4.30
2023-01-12T13:30:31.252Z,4.30
2023-01-12T13:33:12.863Z,4.30
2023-01-12T13:35:40.593Z,4.30
2023-01-12T13:38:25.643Z,4.30
2023-01-12T13:40:56.134Z,4.30
2023-01-12T13:43:31.416Z,4.20
2023-01-12T13:46:00.998Z,4.30
2023-01-12T13:48:29.133Z,4.30
2023-01-12T13:50:58.453Z,4.30
2023-01-12T13:53:28.581Z,4.30
2023-01-12T13:56:05.877Z,4.30
2023-01-12T13:58:40.789Z,4.20
2023-01-12T14:01:16.095Z,4.20
2023-01-12T14:03:59.147Z,4.20
2023-01-12T14:06:25.932Z,4.20
2023-01-12T14:08:58.357Z,4.20
2023-01-12T14:11:44.755Z,4.20
2023-01-12T14:14:33.154Z,4.20
2023-01-12T14:17:18.462Z,4.20
2023-01-12T14:19:49.954Z,4.20
2023-01-12T14:22:17.823Z,4.20
2023-01-12T14:24:44.581Z,4.20
2023-01-12T14:27:22.898Z,4.20
2023-01-12T14:29:50.197Z,4.20
2023-01-12T14:32:18.756Z,4.10
2023-01-12T14:34:50.059Z,4.20
2023-01-12T14:37:24.693Z,4.20
2023-01-12T14:39:51.506Z,4.20
2023-01-12T14:42:37.553Z,4.20
2023-01-12T14:45:38.404Z,4.30
2023-01-12T14:48:25.366Z,4.30
2023-01-12T14:50:59.238Z,4.30
2023-01-12T14:53:31.649Z,4.30
2023-01-12T14:56:06.681Z,4.20
2023-01-12T14:58:33.517Z,4.30
2023-01-12T15:01:00.377Z,4.30
2023-01-12T15:03:35.471Z,4.30
2023-01-12T15:06:13.879Z,4.30
2023-01-12T15:08:51.961Z,4.30
2023-01-12T15:11:28.839Z,4.30
2023-01-12T15:13:57.170Z,4.40
2023-01-12T15:16:42.288Z,4.40
2023-01-12T15:19:28.560Z,4.40
2023-01-12T15:22:14.999Z,4.40
2023-01-12T15:25:00.203Z,4.40
2023-01-12T15:27:27.093Z,4.40
2023-01-12T15:29:55.010Z,4.40
2023-01-12T15:32:27.658Z,4.40
2023-01-12T15:34:59.368Z,4.40
2023-01-12T15:37:26.492Z,4.40
2023-01-12T15:39:53.325Z,4.40
2023-01-12T15:42:22.180Z,4.30
2023-01-12T15:44:51.043Z,4.40
2023-01-12T15:47:18.671Z,4.30
2023-01-12T15:49:48.537Z,4.30
2023-01-12T15:52:20.932Z,4.30
2023-01-12T15:54:47.814Z,4.30
2023-01-12T15:57:14.934Z,4.30
2023-01-12T15:59:41.941Z,4.30
2023-01-12T16:02:25.976Z,4.40
2023-01-12T16:04:53.276Z,4.40
2023-01-12T16:07:20.136Z,4.40
2023-01-12T16:35:24.950Z,4.50
2023-01-12T16:37:53.584Z,4.50
2023-01-12T16:40:20.506Z,4.50
2023-01-12T16:42:47.277Z,4.50
2023-01-12T16:45:14.958Z,4.50
2023-01-12T16:47:41.725Z,4.50
2023-01-12T16:50:08.702Z,4.50
2023-01-12T16:52:35.545Z,4.50
2023-01-12T16:55:02.729Z,4.50
2023-01-12T16:57:29.483Z,4.50
2023-01-12T16:59:56.259Z,4.50
2023-01-12T17:02:23.268Z,4.50
2023-01-12T17:04:52.467Z,4.50
2023-01-12T17:07:19.484Z,4.60
2023-01-12T17:09:46.319Z,4.50
2023-01-12T17:12:13.258Z,4.50
2023-01-12T17:14:40.101Z,4.60
2023-01-12T17:17:09.418Z,4.60
2023-01-12T17:19:39.349Z,4.60
2023-01-12T17:22:07.947Z,4.60
2023-01-12T17:24:36.328Z,4.60
2023-01-12T17:27:03.497Z,4.60
2023-01-12T17:29:31.784Z,4.60
2023-01-12T17:32:04.518Z,4.60
2023-01-12T17:34:34.916Z,4.60
2023-01-12T17:37:08.217Z,4.60
2023-01-12T17:39:36.262Z,4.70
2023-01-12T17:42:22.355Z,4.60
2023-01-12T17:44:49.147Z,4.60
2023-01-12T17:47:15.918Z,4.60
2023-01-12T17:49:43.119Z,4.60
2023-01-12T17:52:09.884Z,4.70
2023-01-12T17:54:36.887Z,4.60
2023-01-12T17:57:03.689Z,4.70
2023-01-12T17:59:30.589Z,4.70
2023-01-12T18:01:57.972Z,4.80
2023-01-12T18:04:24.927Z,4.80
2023-01-12T18:06:51.820Z,4.70
2023-01-12T18:09:18.781Z,4.80
2023-01-12T18:11:45.550Z,4.80
2023-01-12T18:14:12.438Z,4.80
2023-01-12T18:17:04.225Z,4.90
2023-01-12T18:19:31.697Z,4.80
2023-01-12T18:21:58.648Z,4.80
2023-01-12T18:24:25.554Z,4.90
2023-01-12T18:26:52.302Z,4.90
2023-01-12T18:29:19.189Z,4.90
2023-01-12T18:31:47.405Z,4.90
2023-01-12T18:34:16.638Z,4.90
2023-01-12T18:36:45.123Z,4.90
2023-01-12T18:39:14.890Z,4.90
2023-01-12T18:42:00.554Z,4.90
2023-01-12T18:44:27.398Z,4.90
2023-01-12T18:47:14.549Z,4.90
2023-01-12T18:49:45.388Z,4.90
2023-01-12T18:52:30.785Z,4.90
2023-01-12T18:54:58.846Z,4.90
2023-01-12T18:57:27.933Z,4.90
2023-01-12T19:00:14.579Z,4.90
2023-01-12T19:02:42.072Z,4.90
2023-01-12T19:05:19.487Z,4.90
2023-01-12T19:07:58.762Z,4.90
2023-01-12T19:10:27.598Z,4.90
2023-01-12T19:13:14.358Z,4.90
2023-01-12T19:16:00.167Z,4.90
2023-01-12T19:18:28.800Z,4.90
2023-01-12T19:21:21.455Z,4.90
2023-01-12T19:24:07.016Z,4.90
2023-01-12T19:26:52.277Z,5.00
2023-01-12T19:29:19.064Z,5.00
2023-01-12T19:31:45.885Z,5.00
2023-01-12T19:34:12.939Z,5.10
2023-01-12T19:36:39.729Z,5.10
2023-01-12T19:39:07.710Z,5.00
2023-01-12T19:41:53.299Z,5.10
2023-01-12T19:44:20.120Z,5.00
2023-01-12T19:46:47.049Z,5.40
2023-01-12T19:49:16.859Z,5.40
2023-01-12T19:51:46.142Z,5.40
2023-01-12T19:54:13.105Z,5.30
2023-01-12T19:56:39.873Z,5.40
2023-01-12T19:59:06.978Z,5.40
2023-01-12T20:01:33.985Z,5.40
2023-01-12T20:04:01.153Z,5.40
2023-01-12T20:06:27.984Z,5.30
2023-01-12T20:08:55.188Z,5.40
2023-01-12T20:11:21.960Z,5.40
2023-01-12T20:13:48.773Z,5.40
2023-01-12T20:16:15.620Z,5.40
2023-01-12T20:18:43.715Z,5.30
2023-01-12T20:21:11.532Z,5.30
2023-01-12T20:23:38.346Z,5.30
2023-01-12T20:26:06.005Z,5.30
2023-01-12T20:28:32.896Z,5.30
2023-01-12T20:30:59.665Z,5.20
2023-01-12T20:33:27.563Z,5.20
2023-01-12T20:35:54.351Z,5.30
2023-01-12T20:38:22.752Z,5.20
2023-01-12T20:40:49.760Z,5.20
2023-01-12T20:43:18.202Z,5.20
2023-01-12T20:45:45.249Z,5.20
2023-01-12T20:48:15.585Z,5.20
2023-01-12T20:50:43.590Z,5.20
2023-01-12T20:53:11.274Z,5.20
2023-01-12T20:55:42.122Z,5.20
2023-01-12T20:58:09.120Z,5.20
2023-01-12T21:00:35.880Z,5.20
2023-01-12T21:03:03.337Z,5.30
2023-01-12T21:05:30.512Z,5.20
2023-01-12T21:08:07.342Z,5.30
2023-01-12T21:10:35.662Z,5.30
2023-01-12T21:13:02.439Z,5.40
2023-01-12T21:15:29.273Z,5.30
2023-01-12T21:17:56.127Z,5.30
2023-01-12T21:20:23.059Z,5.40
2023-01-12T21:22:53.001Z,5.30
2023-01-12T21:25:20.201Z,5.30
2023-01-12T21:27:47.064Z,5.40
2023-01-12T21:30:13.889Z,5.40
2023-01-12T21:32:42.873Z,5.40
2023-01-12T21:35:09.941Z,5.40
2023-01-12T21:37:36.735Z,5.40
2023-01-12T21:40:03.944Z,5.50
2023-01-12T21:42:49.381Z,5.50
2023-01-12T21:45:16.208Z,5.50
2023-01-12T21:47:45.963Z,5.50
2023-01-12T21:50:12.790Z,5.50
2023-01-12T21:52:41.597Z,5.50
2023-01-12T21:55:11.390Z,5.50
2023-01-12T21:57:38.338Z,5.50
2023-01-12T22:00:05.532Z,5.60
2023-01-12T22:02:34.283Z,5.60
2023-01-12T22:05:01.129Z,5.60
2023-01-12T22:07:28.126Z,5.60
2023-01-12T22:09:55.175Z,5.60
2023-01-12T22:12:21.980Z,5.60
2023-01-12T22:14:48.779Z,5.60
2023-01-12T22:17:18.670Z,5.70
2023-01-12T22:19:45.527Z,5.60
2023-01-12T22:22:12.320Z,5.70
2023-01-12T22:24:39.144Z,5.60
2023-01-12T22:27:05.964Z,5.70
2023-01-12T22:29:32.710Z,5.60
2023-01-12T22:31:59.490Z,5.70
2023-01-12T22:34:26.382Z,5.70
2023-01-12T22:36:53.158Z,5.60
2023-01-12T22:39:19.984Z,5.60
2023-01-12T22:41:47.725Z,5.70
2023-01-12T22:44:14.650Z,5.70
2023-01-12T22:46:41.495Z,5.70
2023-01-12T22:49:08.353Z,5.80
2023-01-12T22:51:35.183Z,5.80
2023-01-12T22:54:02.179Z,5.80
2023-01-12T22:56:29.089Z,5.80
2023-01-12T22:58:56.030Z,5.80
2023-01-12T23:01:25.558Z,5.80
2023-01-12T23:03:54.486Z,5.80
2023-01-12T23:06:22.472Z,5.80
2023-01-12T23:08:50.292Z,5.80
2023-01-12T23:11:21.151Z,5.80
2023-01-12T23:13:48.094Z,5.90
2023-01-12T23:16:16.484Z,5.90
2023-01-12T23:18:44.256Z,5.90
2023-01-12T23:21:21.057Z,5.80
2023-01-12T23:26:40.720Z,5.80
2023-01-12T23:29:08.444Z,5.70
2023-01-12T23:31:35.485Z,5.80
2023-01-12T23:39:44.864Z,5.80
2023-01-12T23:42:11.682Z,5.80
2023-01-12T23:44:40.680Z,5.80
2023-01-12T23:52:50.419Z,5.90
2023-01-12T23:55:17.483Z,5.90
2023-01-12T23:57:48.016Z,5.80
